Sharm El Sheikh, Egypt

3:48 AM EET on August 31, 2015 (GMT +0200)
Sharm El Sheikh International | | Change Station
CLOSE
Current Station
Airport
Location: Sharm El Sheikh,
Elevation: 164 ft
Nearby Weather Stations

Elev 164 ft 27.98 °N, 34.39 °E | Updated 48 minutes ago

Clear
Clear
84 °F
Feels Like 85 °F
N
17
Wind Variable Wind from North

Today
High -- | Low -- °F
--% Chance of Precip.
Yesterday
High -- | Low -- °F
Precip. -- in
5:20 AM 6:05 PM
Full, 97% visible
Pressure 29.74 in
Visibility -9999.0 miles
Clouds
Heat Index 85 °F
Dew Point 63 °F
Humidity 48%
Rainfall 0.00 in
Snow Depth Not available.
UV Not available.
Pollen Not available.
Air Quality Not available.
Flu Activity Not available.
METAR HESH 310100Z 35015KT CAVOK 29/17 Q1007 NOSIG
Pressure 29.74 in
Visibility -9999.0 miles
Clouds
Heat Index 85 °F
Dew Point 63 °F
Humidity 48%
Rainfall 0.00 in
Snow Depth Not available.
UV Not available.
Pollen Not available.
Air Quality Not available.
Flu Activity Not available.
METAR HESH 310100Z 35015KT CAVOK 29/17 Q1007 NOSIG

10-Day Weather Forecast

×

Almanac

Astronomy

Aug. 31, 2015 Rise Set
Actual Time
Civil Twilight
Nautical Twilight
Astronomical Twilight
Moon
Length of Visible Light
Length of Day
Tomorrow will be .
, % of the Moon is Illuminated

Today's Extremes

Country Highs Country Lows

Community

WunderPhotos

Upload Photos

1,851,145 photos uploaded!

WunderBlogs® & News

Nearby

Air Quality

  Air Quality AQ Index Pollutant
Not available.

Snow Depth

Station Depth Elevation

Earthquake Activity

City Distance Mag. Time & Date
Minimum magnitude displayed is 2.5.

Coastal Water Temperatures

Place Temperature

Stations

Nearby Weather Stations

Station Location Temp. Windchill Dew Point Humidity Wind Precip. Elev Updated Type